Time;durP1;ratioP1;P1;durP2;ratioP2;P2;SDS_P1;SDS_P2;PMS_P1;PMS_P2;Temp;Humidity;BMP_temperature;BMP_pressure;BME280_temperature;BME280_humidity;BME280_pressure;Samples;Min_cycle;Max_cycle;Signal;HPM_P1;HPM_P2
2023/04/28 00:00:04;;;;;;;5.30;2.50;;;;;;;8.39;51.68;100501.31;125247;1086;104389;-78
2023/04/28 00:02:53;;;;;;;10.80;2.80;;;;;;;8.37;51.55;100492.52;125207;1086;104356;-79
2023/04/28 00:05:22;;;;;;;9.27;2.90;;;;;;;8.38;51.76;100500.43;125227;1085;104389;-78
2023/04/28 00:07:50;;;;;;;8.97;2.73;;;;;;;8.36;52.05;100504.67;125214;1086;104370;-79
2023/04/28 00:10:19;;;;;;;6.50;2.80;;;;;;;8.36;51.80;100503.80;125390;1086;104325;-80
2023/04/28 00:12:47;;;;;;;10.67;2.80;;;;;;;8.36;51.96;100498.56;125226;1086;104209;-80
2023/04/28 00:15:16;;;;;;;8.13;2.97;;;;;;;8.35;51.57;100504.61;125388;1086;104162;-79
2023/04/28 00:17:44;;;;;;;7.40;3.00;;;;;;;8.35;51.92;100510.75;125204;1086;104322;-78
2023/04/28 00:20:13;;;;;;;9.33;2.80;;;;;;;8.34;51.65;100502.84;125097;1086;104280;-79
2023/04/28 00:22:41;;;;;;;8.90;3.13;;;;;;;8.33;52.10;100507.16;125084;1086;104244;-78
2023/04/28 00:25:10;;;;;;;8.53;3.57;;;;;;;8.34;51.98;100511.56;125226;1086;104225;-79
2023/04/28 00:27:39;;;;;;;7.60;3.35;;;;;;;8.34;51.92;100506.34;125149;1086;105466;-79
2023/04/28 00:30:10;;;;;;;9.60;2.97;;;;;;;8.34;52.25;100511.56;125116;1086;104345;-80
2023/04/28 00:32:38;;;;;;;6.27;2.70;;;;;;;8.33;52.39;100508.89;125379;1086;104293;-78
2023/04/28 00:35:08;;;;;;;8.47;2.80;;;;;;;8.32;51.83;100513.23;125230;1086;104238;-79
2023/04/28 00:37:37;;;;;;;7.07;2.77;;;;;;;8.33;52.07;100509.77;125307;1086;104232;-80
2023/04/28 00:40:08;;;;;;;5.67;2.70;;;;;;;8.33;52.23;100509.77;125268;1086;104257;-77
2023/04/28 00:42:37;;;;;;;5.23;2.43;;;;;;;8.32;52.12;100509.70;125552;1086;104758;-78
2023/04/28 00:45:07;;;;;;;5.70;2.67;;;;;;;8.31;52.17;100518.39;125158;1086;104369;-79
2023/04/28 00:47:37;;;;;;;9.10;3.10;;;;;;;8.30;52.20;100516.59;125248;1086;104200;-79
2023/04/28 00:50:09;;;;;;;7.23;2.77;;;;;;;8.30;52.30;100516.59;125253;1086;104225;-78
2023/04/28 00:52:38;;;;;;;9.70;2.63;;;;;;;8.28;52.31;100525.25;125296;1086;104251;-78
2023/04/28 00:55:09;;;;;;;7.30;3.07;;;;;;;8.30;52.04;100506.13;125261;1086;104273;-78
2023/04/28 00:57:38;;;;;;;7.93;2.90;;;;;;;8.27;52.49;100518.25;125500;1086;104382;-80
2023/04/28 01:00:09;;;;;;;9.27;3.40;;;;;;;8.30;52.21;100511.36;125304;1086;104411;-78
2023/04/28 01:02:38;;;;;;;10.23;3.20;;;;;;;8.27;52.13;100518.25;125322;1086;104333;-79
2023/04/28 01:05:09;;;;;;;7.37;2.70;;;;;;;8.26;52.09;100516.45;125116;1086;104443;-79
2023/04/28 01:07:38;;;;;;;7.63;2.67;;;;;;;8.18;52.40;100503.84;125207;1086;104372;-81
2023/04/28 01:10:10;;;;;;;9.57;3.00;;;;;;;8.26;52.12;100528.64;125310;1086;104392;-80
2023/04/28 01:12:38;;;;;;;7.33;2.47;;;;;;;8.25;52.48;100532.06;125418;1086;104337;-79
2023/04/28 01:15:16;;;;;;;9.73;2.50;;;;;;;8.23;52.40;100521.54;125500;1086;104152;-78
2023/04/28 01:17:45;;;;;;;6.33;2.53;;;;;;;8.24;52.60;100527.66;125495;1086;104286;-82
2023/04/28 01:20:14;;;;;;;8.87;2.90;;;;;;;8.21;52.60;100522.28;125729;1086;104248;-81
2023/04/28 01:22:43;;;;;;;8.17;2.90;;;;;;;8.19;52.62;100524.83;125355;1086;104299;-80
2023/04/28 01:25:12;;;;;;;6.10;2.80;;;;;;;8.21;52.81;100531.05;125381;1086;104638;-79
2023/04/28 01:27:40;;;;;;;5.60;2.43;;;;;;;8.20;52.71;100526.62;125260;1085;104261;-80
2023/04/28 01:30:10;;;;;;;10.03;2.97;;;;;;;8.20;52.52;100531.86;125248;1086;104640;-78
2023/04/28 01:32:39;;;;;;;6.07;2.80;;;;;;;8.20;52.58;100534.47;125299;1086;104392;-79
2023/04/28 01:35:08;;;;;;;10.37;2.67;;;;;;;8.21;52.81;100535.35;125490;1086;104229;-80
2023/04/28 01:37:37;;;;;;;4.53;2.80;;;;;;;8.19;52.36;100534.40;125298;1086;104206;-79
2023/04/28 01:40:08;;;;;;;7.27;3.03;;;;;;;8.19;52.39;100537.02;125387;1086;104280;-79
2023/04/28 01:42:38;;;;;;;6.05;2.50;;;;;;;8.18;52.88;100541.36;125347;1086;104309;-79
2023/04/28 01:45:09;;;;;;;9.63;3.20;;;;;;;8.17;53.03;100542.17;125277;1086;104251;-79
2023/04/28 01:47:38;;;;;;;7.37;2.30;;;;;;;8.17;53.10;100543.90;125595;1086;104481;-79
2023/04/28 01:50:08;;;;;;;10.20;2.97;;;;;;;8.15;52.68;100545.52;125205;1086;104210;-78
2023/04/28 01:52:37;;;;;;;7.27;2.67;;;;;;;8.14;52.97;100552.48;125326;1086;104308;-80
2023/04/28 01:55:08;;;;;;;8.07;2.70;;;;;;;8.13;53.08;100544.57;125212;1086;104235;-79
2023/04/28 01:57:37;;;;;;;7.83;2.83;;;;;;;8.09;52.96;100554.88;125600;1086;104376;-79
2023/04/28 02:00:08;;;;;;;7.50;2.70;;;;;;;8.09;53.28;100554.88;125224;1086;104347;-79
2023/04/28 02:02:37;;;;;;;8.90;2.93;;;;;;;8.08;52.90;100554.81;125430;1086;104228;-79
2023/04/28 02:05:07;;;;;;;5.87;2.70;;;;;;;8.07;53.09;100550.40;125422;1086;104289;-80
2023/04/28 02:07:35;;;;;;;6.30;2.63;;;;;;;8.05;53.05;100557.28;125273;1086;104197;-79
2023/04/28 02:10:06;;;;;;;9.30;2.53;;;;;;;8.03;52.91;100554.59;125073;1086;104428;-78
2023/04/28 02:12:35;;;;;;;8.60;2.80;;;;;;;8.01;53.23;100551.03;125269;1086;104174;-78
2023/04/28 02:15:06;;;;;;;6.50;2.93;;;;;;;8.00;53.60;100548.34;125438;1086;104299;-79
2023/04/28 02:17:34;;;;;;;9.80;2.90;;;;;;;7.99;53.39;100546.54;125414;1086;104315;-79
2023/04/28 02:20:04;;;;;;;10.53;2.87;;;;;;;7.96;53.57;100552.51;125427;1086;104234;-79
2023/04/28 02:22:32;;;;;;;8.53;3.17;;;;;;;7.92;53.33;100546.25;125857;1086;104341;-78
2023/04/28 02:25:01;;;;;;;9.23;2.80;;;;;;;7.89;53.18;100558.29;125690;1085;104222;-80
2023/04/28 02:27:30;;;;;;;8.23;2.87;;;;;;;7.81;53.68;100563.14;125528;1086;104210;-78
2023/04/28 02:29:58;;;;;;;8.10;2.65;;;;;;;7.77;53.48;100570.77;125296;1086;104276;-79
2023/04/28 02:32:28;;;;;;;7.77;2.87;;;;;;;7.70;53.78;100567.86;125251;1086;104341;-79
2023/04/28 02:34:57;;;;;;;11.40;2.83;;;;;;;7.66;53.84;100567.62;125183;1086;104241;-79
2023/04/28 02:37:25;;;;;;;5.33;2.60;;;;;;;7.62;53.91;100581.34;125122;1086;104366;-80
2023/04/28 02:39:54;;;;;;;9.97;3.10;;;;;;;7.55;53.93;100575.83;125040;1086;104749;-80
2023/04/28 02:42:24;;;;;;;10.63;3.70;;;;;;;7.51;53.90;100576.52;125141;1086;104289;-78
2023/04/28 02:44:52;;;;;;;9.50;3.30;;;;;;;7.44;54.27;100569.19;124990;1086;104395;-79
2023/04/28 02:47:21;;;;;;;8.03;2.90;;;;;;;7.39;54.20;100568.08;125118;1086;104433;-79
2023/04/28 02:49:50;;;;;;;7.67;3.10;;;;;;;7.32;54.47;100576.41;125164;1086;104774;-80
2023/04/28 02:52:18;;;;;;;6.57;2.67;;;;;;;7.26;54.14;100563.97;125242;1086;104245;-80
2023/04/28 02:54:53;;;;;;;8.30;3.10;;;;;;;7.21;54.83;100568.04;125307;1086;104243;-81
2023/04/28 02:57:21;;;;;;;6.90;2.90;;;;;;;7.17;54.24;100567.00;125391;1086;104276;-80
2023/04/28 02:59:50;;;;;;;8.40;3.10;;;;;;;7.13;54.62;100577.20;125363;1086;104354;-79
2023/04/28 03:02:21;;;;;;;12.70;2.80;;;;;;;7.06;55.08;100589.05;125137;1086;104456;-77
2023/04/28 03:04:50;;;;;;;13.13;3.13;;;;;;;7.00;55.38;100586.13;125361;1086;104297;-80
2023/04/28 03:07:19;;;;;;;6.40;2.87;;;;;;;6.94;55.10;100589.30;125623;1086;104289;-80
2023/04/28 03:09:47;;;;;;;8.30;2.93;;;;;;;6.87;55.24;100581.08;125322;1086;104284;-79
2023/04/28 03:12:16;;;;;;;11.43;3.90;;;;;;;6.84;55.05;100584.45;125817;1086;104376;-79
2023/04/28 03:14:45;;;;;;;8.17;2.50;;;;;;;6.80;55.48;100593.80;125301;1086;104318;-79
2023/04/28 03:17:13;;;;;;;8.70;2.70;;;;;;;6.77;55.00;100593.64;125520;1086;104380;-80
2023/04/28 03:19:42;;;;;;;9.80;3.30;;;;;;;6.74;55.82;100611.73;125256;1086;104344;-80
2023/04/28 03:22:11;;;;;;;6.73;2.50;;;;;;;6.70;55.37;100603.67;125546;1086;104355;-81
2023/04/28 03:24:39;;;;;;;10.40;3.20;;;;;;;6.67;55.59;100614.86;125302;1086;104210;-79
2023/04/28 03:27:08;;;;;;;5.53;2.93;;;;;;;6.65;55.67;100613.86;125203;1086;104270;-80
2023/04/28 03:29:38;;;;;;;9.13;3.33;;;;;;;6.64;55.84;100614.69;125514;1086;104212;-80
2023/04/28 03:32:07;;;;;;;11.00;3.27;;;;;;;6.62;55.70;100621.52;125445;1086;104289;-81
2023/04/28 03:34:36;;;;;;;7.37;2.70;;;;;;;6.60;55.86;100624.04;125470;1086;104213;-80
2023/04/28 03:37:05;;;;;;;9.57;3.83;;;;;;;6.57;55.80;100633.42;125354;1086;104337;-80
2023/04/28 03:39:33;;;;;;;10.55;3.05;;;;;;;6.54;55.79;100633.25;125365;1086;104392;-81
2023/04/28 03:42:02;;;;;;;7.17;2.90;;;;;;;6.50;55.97;100636.50;125503;1086;104180;-79
2023/04/28 03:44:51;;;;;;;7.70;3.17;;;;;;;6.45;56.11;100629.34;125411;1085;104379;-81
2023/04/28 03:47:19;;;;;;;9.87;3.00;;;;;;;6.43;56.41;100636.16;125300;1086;104200;-78
2023/04/28 03:49:49;;;;;;;7.67;2.70;;;;;;;6.43;56.04;100641.38;125343;1086;104443;-79
2023/04/28 03:52:17;;;;;;;6.30;2.90;;;;;;;6.43;56.27;100640.48;125218;1086;107020;-78
2023/04/28 03:54:46;;;;;;;8.47;2.90;;;;;;;6.41;56.37;100635.19;125205;1086;104353;-79
2023/04/28 03:57:15;;;;;;;7.70;3.13;;;;;;;6.41;56.47;100643.02;125218;1086;104296;-78
2023/04/28 03:59:43;;;;;;;10.37;3.00;;;;;;;6.43;56.22;100643.98;125234;1086;104267;-78
2023/04/28 04:02:12;;;;;;;11.07;3.03;;;;;;;6.45;56.52;100638.84;126063;1085;104433;-78
2023/04/28 04:04:40;;;;;;;7.60;3.07;;;;;;;6.44;56.78;100648.39;125687;1086;104329;-76
2023/04/28 04:07:13;;;;;;;7.43;3.03;;;;;;;6.46;56.82;100651.08;125408;1086;104367;-77
2023/04/28 04:09:42;;;;;;;10.33;2.70;;;;;;;6.46;56.49;100649.36;125308;1086;104344;-78
2023/04/28 04:12:11;;;;;;;10.80;3.17;;;;;;;6.50;57.00;100649.53;125217;1086;104643;-77
2023/04/28 04:14:40;;;;;;;14.70;3.50;;;;;;;6.51;56.61;100654.83;125310;1086;104308;-77
2023/04/28 04:17:08;;;;;;;9.87;3.43;;;;;;;6.53;56.81;100657.52;125011;1086;104364;-77
2023/04/28 04:19:37;;;;;;;9.67;3.47;;;;;;;6.55;56.70;100651.59;125745;1086;104296;-81
2023/04/28 04:22:06;;;;;;;11.10;3.30;;;;;;;6.57;57.00;100659.49;125361;1086;105430;-79
2023/04/28 04:24:34;;;;;;;7.50;3.33;;;;;;;6.61;57.08;100661.46;125483;1086;104289;-79
2023/04/28 04:27:03;;;;;;;11.57;4.10;;;;;;;6.63;56.82;100665.92;125477;1086;104322;-79
2023/04/28 04:29:39;;;;;;;10.60;3.10;;;;;;;6.68;56.95;100668.78;125434;1086;104350;-80
2023/04/28 04:32:13;;;;;;;10.20;3.47;;;;;;;6.75;56.82;100664.81;126054;1086;104209;-82
2023/04/28 04:34:42;;;;;;;15.40;3.67;;;;;;;6.82;56.72;100662.62;125897;1086;102505;-81
2023/04/28 04:37:13;;;;;;;11.03;3.03;;;;;;;6.91;56.69;100666.52;126024;1086;104338;-82
2023/04/28 04:39:53;;;;;;;10.33;3.20;;;;;;;6.98;56.70;100687.80;126080;1086;104159;-82
2023/04/28 04:42:22;;;;;;;9.40;3.40;;;;;;;7.06;56.19;100667.33;125881;1086;104424;-82
2023/04/28 04:45:01;;;;;;;13.30;3.07;;;;;;;7.17;56.64;100663.56;125819;1086;104462;-80
2023/04/28 04:47:34;;;;;;;8.87;2.90;;;;;;;7.28;56.30;100668.45;126017;1086;104219;-80
2023/04/28 04:50:04;;;;;;;8.63;3.37;;;;;;;7.38;55.91;100671.58;126084;1086;104318;-80
2023/04/28 04:52:34;;;;;;;11.87;3.73;;;;;;;7.52;56.37;100679.23;126331;1086;104162;-80
2023/04/28 04:55:03;;;;;;;12.07;3.40;;;;;;;7.65;55.61;100676.44;127056;1085;104332;-79
2023/04/28 04:57:31;;;;;;;9.87;3.27;;;;;;;7.73;55.72;100677.71;125999;1086;104254;-80
2023/04/28 05:00:15;;;;;;;9.20;2.90;;;;;;;7.86;55.68;100675.71;125506;1086;104238;-79
2023/04/28 05:02:44;;;;;;;11.60;3.40;;;;;;;7.97;55.63;100671.02;126419;1086;104267;-77
2023/04/28 05:05:13;;;;;;;9.53;3.47;;;;;;;8.07;55.01;100678.45;126013;1086;104346;-77
2023/04/28 05:07:42;;;;;;;11.57;3.37;;;;;;;8.14;54.79;100683.17;126141;1086;104199;-77
2023/04/28 05:10:11;;;;;;;6.77;2.93;;;;;;;8.20;54.64;100670.40;125686;1086;104449;-80
2023/04/28 05:12:40;;;;;;;10.60;3.10;;;;;;;8.25;54.61;100670.63;126039;1086;104436;-81
2023/04/28 05:15:10;;;;;;;13.43;3.40;;;;;;;8.32;54.62;100666.57;126222;1086;104241;-78
2023/04/28 05:17:42;;;;;;;9.20;2.90;;;;;;;8.37;54.07;100683.39;126067;1086;104360;-77
2023/04/28 05:20:11;;;;;;;7.33;3.10;;;;;;;8.42;53.84;100684.50;125954;1086;104562;-80
2023/04/28 05:22:42;;;;;;;6.33;2.80;;;;;;;8.46;53.53;100691.67;125963;1086;104190;-77
2023/04/28 05:25:11;;;;;;;10.13;3.20;;;;;;;8.52;53.86;100699.81;126402;1086;102284;-80
2023/04/28 05:27:42;;;;;;;9.10;3.10;;;;;;;8.61;53.08;100695.02;126470;1086;104302;-77
2023/04/28 05:30:12;;;;;;;8.47;2.93;;;;;;;8.67;52.91;100697.03;126595;1086;104264;-84
2023/04/28 05:32:53;;;;;;;10.10;3.10;;;;;;;8.73;53.19;100706.90;125999;1086;104377;-78
2023/04/28 05:35:29;;;;;;;9.20;3.40;;;;;;;8.81;53.12;100700.29;126463;1086;104350;-79
2023/04/28 05:38:22;;;;;;;8.80;2.90;;;;;;;8.93;52.81;100699.97;126602;1086;102966;-80
2023/04/28 05:40:52;;;;;;;10.23;3.30;;;;;;;9.03;51.91;100696.03;128148;1086;102087;-79
2023/04/28 05:43:21;;;;;;;8.00;2.80;;;;;;;9.14;51.98;100692.16;128183;1086;101840;-79
2023/04/28 05:45:53;;;;;;;4.83;2.63;;;;;;;9.23;51.68;100695.19;128197;1086;102040;-78
2023/04/28 05:48:26;;;;;;;7.17;2.70;;;;;;;9.42;52.71;100689.03;128077;1086;104184;-78
2023/04/28 05:50:56;;;;;;;6.70;2.97;;;;;;;9.58;51.55;100692.31;126737;1087;104312;-79
2023/04/28 05:53:26;;;;;;;7.63;3.00;;;;;;;9.67;50.95;100693.59;126599;1086;104171;-80
2023/04/28 05:56:04;;;;;;;6.93;2.60;;;;;;;9.75;50.01;100693.03;127299;1086;104343;-77
2023/04/28 05:58:39;;;;;;;8.00;2.80;;;;;;;9.88;49.44;100682.23;127093;1089;102869;-80
2023/04/28 06:01:12;;;;;;;6.92;3.02;;;;;;;9.97;48.63;100687.86;127282;1086;102308;-82
2023/04/28 06:03:45;;;;;;;10.03;2.77;;;;;;;10.08;49.38;100691.81;127252;1086;102146;-79
2023/04/28 06:06:19;;;;;;;8.30;2.80;;;;;;;10.10;48.07;100691.88;126716;1086;102513;-77
2023/04/28 06:08:50;;;;;;;8.23;3.13;;;;;;;10.19;48.28;100691.33;126363;1089;104216;-77
2023/04/28 06:11:21;;;;;;;6.53;2.50;;;;;;;10.25;46.12;100689.87;126658;1086;104007;-77
2023/04/28 06:13:51;;;;;;;10.67;2.70;;;;;;;10.33;47.38;100678.80;126850;1086;102230;-79
2023/04/28 06:16:22;;;;;;;8.87;2.70;;;;;;;10.38;45.58;100691.28;126586;1086;103032;-77
2023/04/28 06:18:53;;;;;;;4.50;2.50;;;;;;;10.44;44.61;100677.52;128108;1085;101876;-79
2023/04/28 06:21:23;;;;;;;5.47;1.80;;;;;;;10.48;43.28;100687.27;127368;1086;102985;-76
2023/04/28 06:23:55;;;;;;;8.27;2.00;;;;;;;10.53;43.54;100676.96;126663;1086;102516;-78
2023/04/28 06:26:24;;;;;;;8.80;2.57;;;;;;;10.53;42.34;100683.12;126632;1086;104263;-77
2023/04/28 06:28:52;;;;;;;10.17;3.27;;;;;;;10.56;44.11;100670.09;126779;1086;104347;-81
2023/04/28 06:31:25;;;;;;;7.57;2.77;;;;;;;10.67;44.50;100673.12;126616;1086;104206;-81
2023/04/28 06:33:59;;;;;;;9.93;2.40;;;;;;;10.75;44.86;100678.66;126636;1086;104260;-79
2023/04/28 06:36:43;;;;;;;6.37;2.43;;;;;;;10.81;44.85;100681.52;126977;1086;104235;-80
2023/04/28 06:39:16;;;;;;;3.57;1.90;;;;;;;10.89;42.84;100680.10;127623;1086;104152;-79
2023/04/28 06:41:52;;;;;;;7.73;2.60;;;;;;;11.04;42.08;100685.01;127551;1086;104024;-80
2023/04/28 06:44:26;;;;;;;6.63;2.37;;;;;;;11.14;40.90;100679.27;127630;1086;102469;-83
2023/04/28 06:46:55;;;;;;;9.00;1.93;;;;;;;11.18;40.80;100679.38;127857;1086;104228;-82
2023/04/28 06:49:24;;;;;;;4.37;1.90;;;;;;;11.24;40.24;100690.10;127278;1086;104404;-75
2023/04/28 06:51:55;;;;;;;7.43;2.10;;;;;;;11.28;40.47;100686.73;127165;1085;104634;-79
2023/04/28 06:54:24;;;;;;;9.03;2.60;;;;;;;11.40;39.98;100700.30;128460;1086;101835;-79
2023/04/28 06:56:58;;;;;;;6.17;2.35;;;;;;;11.49;40.58;100689.23;128155;1086;101764;-82
2023/04/28 06:59:28;;;;;;;5.47;2.20;;;;;;;11.60;39.28;100698.37;127561;1086;104232;-81
2023/04/28 07:01:57;;;;;;;5.10;2.27;;;;;;;11.69;39.00;100693.44;127098;1085;102815;-79
2023/04/28 07:04:26;;;;;;;4.60;2.07;;;;;;;11.79;38.36;100694.63;127080;1086;102247;-80
2023/04/28 07:09:37;;;;;;;7.40;2.10;;;;;;;12.12;37.83;100698.37;127198;1086;104564;-80
2023/04/28 07:12:13;;;;;;;5.13;1.97;;;;;;;12.26;37.96;100698.82;127391;1086;103035;-80
2023/04/28 07:14:47;;;;;;;4.20;1.87;;;;;;;12.39;38.75;100696.62;127026;1086;102294;-80
2023/04/28 07:17:19;;;;;;;6.63;2.27;;;;;;;12.58;39.37;100678.77;126776;1086;104305;-78
2023/04/28 07:19:56;;;;;;;2.73;1.90;;;;;;;12.79;36.94;100694.30;126842;1086;102186;-77
2023/04/28 07:22:29;;;;;;;8.13;2.37;;;;;;;12.82;35.90;100706.68;126813;1086;104248;-78
2023/04/28 07:25:02;;;;;;;;;;;;;;;12.85;35.73;100694.48;127076;1086;102593;-79
2023/04/28 07:27:45;;;;;;;4.70;1.70;;;;;;;12.89;36.03;100687.59;127793;1086;104101;-77
2023/04/28 07:30:16;;;;;;;4.80;1.80;;;;;;;12.97;36.71;100677.28;127022;1086;104159;-79
2023/04/28 07:32:48;;;;;;;10.80;2.57;;;;;;;13.07;36.61;100695.11;127007;1086;104241;-77
2023/04/28 07:35:20;;;;;;;7.70;2.23;;;;;;;13.06;36.55;100702.14;127001;1086;102098;-77
2023/04/28 07:37:59;;;;;;;6.00;2.20;;;;;;;13.04;36.42;100689.76;128252;1086;102799;-80
2023/04/28 07:40:52;;;;;;;8.93;2.30;;;;;;;13.10;36.94;100687.30;128540;1085;101780;-79
2023/04/28 07:47:14;;;;;;;9.53;2.53;;;;;;;13.26;36.45;100678.98;128185;1086;111385;-82
2023/04/28 07:50:16;;;;;;;3.73;2.07;;;;;;;13.25;35.84;100684.22;128609;1085;101234;-80
2023/04/28 07:56:50;;;;;;;8.43;2.70;;;;;;;13.42;36.14;100700.53;127967;1086;102454;-79
2023/04/28 07:59:43;;;;;;;5.37;2.47;;;;;;;13.36;35.68;100692.45;127204;1086;104318;-82
2023/04/28 08:02:38;;;;;;;7.93;2.47;;;;;;;13.22;35.61;100658.66;127583;1086;102191;-79
2023/04/28 08:05:43;;;;;;;4.40;2.00;;;;;;;13.24;36.47;100662.22;127861;1086;102298;-80
2023/04/28 08:08:12;;;;;;;;;;;;;;;13.35;36.39;100653.76;126866;1086;102801;-82
2023/04/28 08:10:47;;;;;;;10.23;2.27;;;;;;;13.41;35.29;100661.83;126883;1086;104171;-80
2023/04/28 08:13:17;;;;;;;8.97;2.20;;;;;;;13.52;35.63;100641.03;127418;1086;104225;-83
2023/04/28 08:15:49;;;;;;;6.80;2.20;;;;;;;13.53;35.31;100651.61;127527;1086;104344;-82
2023/04/28 08:18:18;;;;;;;7.13;2.50;;;;;;;13.54;35.05;100642.86;127205;1086;104194;-80
2023/04/28 08:21:00;;;;;;;8.63;2.10;;;;;;;13.52;32.69;100664.76;127266;1086;104465;-82
2023/04/28 08:23:45;;;;;;;5.27;1.97;;;;;;;13.50;32.27;100669.11;127161;1086;104216;-81
2023/04/28 08:26:23;;;;;;;7.97;2.20;;;;;;;13.57;33.23;100645.58;126941;1086;104360;-79
2023/04/28 08:28:52;;;;;;;8.63;2.67;;;;;;;13.43;31.82;100646.94;126981;1086;104152;-78
2023/04/28 08:31:23;;;;;;;4.60;1.83;;;;;;;13.46;32.02;100673.38;126904;1086;102138;-81
2023/04/28 08:33:52;;;;;;;6.63;2.27;;;;;;;13.44;32.24;100654.01;127245;1086;102541;-83
2023/04/28 08:36:30;;;;;;;3.83;2.13;;;;;;;13.46;31.83;100654.92;127198;1086;103251;-83
2023/04/28 08:39:00;;;;;;;6.27;1.87;;;;;;;13.48;32.59;100640.95;126997;1086;102271;-79
2023/04/28 08:41:40;;;;;;;6.07;2.10;;;;;;;13.58;32.75;100631.52;127527;1086;104158;-78
2023/04/28 08:44:13;;;;;;;6.30;1.80;;;;;;;13.53;32.37;100643.70;127076;1086;102289;-81
2023/04/28 08:47:06;;;;;;;13.67;2.37;;;;;;;13.54;31.53;100634.95;126782;1086;102562;-80
2023/04/28 08:49:57;;;;;;;6.47;2.30;;;;;;;13.58;32.57;100643.83;127227;1086;102227;-81
2023/04/28 08:52:54;;;;;;;13.07;2.43;;;;;;;13.50;32.29;100648.89;127887;1086;102189;-85
2023/04/28 08:55:35;;;;;;;6.53;1.90;;;;;;;13.48;32.61;100635.67;127925;1086;104148;-80
2023/04/28 08:58:13;;;;;;;7.10;2.50;;;;;;;13.40;33.13;100633.68;126976;1086;104228;-76
2023/04/28 09:01:05;;;;;;;4.43;2.00;;;;;;;13.26;32.85;100615.75;127183;1085;102584;-85
2023/04/28 09:03:39;;;;;;;5.90;2.03;;;;;;;13.15;33.70;100617.20;127914;1085;101935;-80
2023/04/28 09:06:10;;;;;;;6.73;2.27;;;;;;;13.24;33.92;100625.33;127669;1090;104111;-80
2023/04/28 09:08:48;;;;;;;4.73;2.27;;;;;;;13.40;33.75;100631.05;127155;1086;111607;-82
2023/04/28 09:11:20;;;;;;;12.70;2.60;;;;;;;13.52;33.86;100622.58;127889;1085;102608;-81
2023/04/28 09:14:19;;;;;;;5.57;1.77;;;;;;;13.62;34.07;100622.84;126849;1086;104199;-79
2023/04/28 09:16:52;;;;;;;6.47;2.17;;;;;;;13.81;34.24;100616.28;126759;1086;102232;-80
2023/04/28 09:19:32;;;;;;;5.50;2.00;;;;;;;13.89;34.50;100611.19;127146;1086;104158;-79
2023/04/28 09:22:50;;;;;;;;;;;;;;;;;;;;;
2023/04/28 09:25:59;;;;;;;3.87;1.83;;;;;;;13.87;33.43;100591.81;126629;1089;104383;-81
2023/04/28 09:28:46;;;;;;;6.73;2.00;;;;;;;13.98;34.04;100590.30;127598;1089;102020;-84
2023/04/28 09:32:07;;;;;;;4.60;2.13;;;;;;;14.19;33.58;100594.28;126519;1089;102692;-83
2023/04/28 09:35:21;;;;;;;;;;;;;;;;;;;;;
2023/04/28 09:38:32;;;;;;;6.77;2.17;;;;;;;14.26;33.31;100574.19;126693;1086;104159;-82
2023/04/28 09:41:20;;;;;;;5.20;1.67;;;;;;;14.18;31.32;100601.32;126518;1092;104303;-80
2023/04/28 09:44:41;;;;;;;;;;;;;;;;;;;;;
2023/04/28 09:51:36;;;;;;;5.73;1.97;;;;;;;13.98;33.28;100573.59;126893;1086;104277;-82
2023/04/28 09:54:30;;;;;;;14.37;2.80;;;;;;;13.91;32.86;100614.75;128051;1086;104172;-85
2023/04/28 09:57:18;;;;;;;16.57;4.07;;;;;;;13.89;32.30;100615.58;127800;1086;102093;-84
2023/04/28 10:00:20;;;;;;;7.47;2.87;;;;;;;13.86;32.70;100583.86;126872;1086;118469;-81
2023/04/28 10:02:54;;;;;;;9.43;3.00;;;;;;;13.97;33.37;100583.23;127352;1085;104166;-81
2023/04/28 10:05:52;;;;;;;6.50;2.10;;;;;;;14.07;32.72;100589.64;127730;1086;102882;-81
2023/04/28 10:08:38;;;;;;;8.37;2.13;;;;;;;14.17;33.43;100582.81;127687;1086;102063;-80
2023/04/28 10:11:21;;;;;;;5.03;2.07;;;;;;;14.31;33.53;100578.72;127756;1086;102203;-80
2023/04/28 10:13:57;;;;;;;7.63;1.83;;;;;;;14.13;32.62;100594.14;127220;1086;104136;-75
2023/04/28 10:16:32;;;;;;;4.40;1.90;;;;;;;14.03;32.61;100588.66;126929;1086;104239;-80
2023/04/28 10:19:05;;;;;;;6.63;2.37;;;;;;;14.20;34.04;100554.73;127392;1086;101857;-80
2023/04/28 10:21:54;;;;;;;4.80;2.07;;;;;;;14.35;32.86;100575.30;127245;1086;102714;-78
2023/04/28 10:24:35;;;;;;;8.00;2.47;;;;;;;14.46;32.76;100577.25;127174;1086;104159;-77
2023/04/28 10:27:10;;;;;;;6.70;2.03;;;;;;;14.48;33.00;100586.13;127475;1086;102204;-78
2023/04/28 10:29:39;;;;;;;5.23;2.40;;;;;;;14.50;32.57;100563.27;127464;1086;102824;-79
2023/04/28 10:32:25;;;;;;;6.43;2.23;;;;;;;14.53;32.74;100553.66;127346;1086;102060;-78
2023/04/28 10:35:31;;;;;;;6.47;2.40;;;;;;;14.54;32.24;100580.97;127026;1086;102690;-77
2023/04/28 10:38:08;;;;;;;6.50;2.17;;;;;;;14.59;33.33;100547.62;127329;1086;104178;-76
2023/04/28 10:40:40;;;;;;;6.33;2.30;;;;;;;14.65;32.81;100557.46;127113;1086;102685;-76
2023/04/28 10:43:49;;;;;;;7.27;2.50;;;;;;;14.73;32.54;100561.13;127276;1086;102272;-78
2023/04/28 10:46:48;;;;;;;8.47;3.07;;;;;;;14.81;33.59;100535.75;127001;1086;104187;-76
2023/04/28 10:49:37;;;;;;;6.10;2.00;;;;;;;14.75;32.84;100577.89;127198;1086;102831;-75
2023/04/28 10:52:49;;;;;;;8.87;2.10;;;;;;;14.74;32.46;100562.92;127253;1086;104166;-77
2023/04/28 10:55:32;;;;;;;3.37;1.70;;;;;;;14.90;32.72;100569.39;127096;1086;102027;-78
2023/04/28 10:58:45;;;;;;;5.77;2.30;;;;;;;15.01;33.32;100557.26;126985;1086;102320;-75
2023/04/28 11:01:30;;;;;;;12.50;2.37;;;;;;;15.09;32.59;100557.41;127244;1086;104200;-78
2023/04/28 11:04:09;;;;;;;5.23;3.03;;;;;;;15.13;32.36;100566.27;126865;1086;104213;-77
2023/04/28 11:06:48;;;;;;;3.10;2.10;;;;;;;15.19;32.75;100551.44;126660;1086;104280;-78
2023/04/28 11:09:55;;;;;;;5.27;2.40;;;;;;;15.21;32.53;100547.05;127057;1086;102878;-79
2023/04/28 11:12:28;;;;;;;6.27;2.13;;;;;;;15.26;32.18;100542.73;126991;1086;106953;-80
2023/04/28 11:15:27;;;;;;;6.87;2.53;;;;;;;15.16;30.84;100564.59;127772;1085;102026;-79
2023/04/28 11:18:22;;;;;;;7.15;2.20;;;;;;;15.26;32.76;100560.35;126800;1086;102075;-78
2023/04/28 11:21:08;;;;;;;5.67;2.10;;;;;;;15.27;31.74;100563.02;126681;1089;104203;-76
2023/04/28 11:23:57;;;;;;;5.07;2.20;;;;;;;15.34;33.12;100550.79;126350;1089;104242;-76
2023/04/28 11:26:38;;;;;;;8.20;2.80;;;;;;;15.40;32.25;100566.76;126260;1089;104402;-75
2023/04/28 11:29:09;;;;;;;7.10;2.30;;;;;;;15.50;32.57;100553.69;126263;1089;104654;-75
2023/04/28 11:31:38;;;;;;;6.60;2.43;;;;;;;15.31;31.61;100571.89;126769;1086;102649;-81
2023/04/28 11:34:15;;;;;;;6.43;2.17;;;;;;;15.18;32.29;100578.72;126923;1086;104158;-77
2023/04/28 11:36:47;;;;;;;3.72;2.17;;;;;;;14.92;32.49;100580.87;126678;1086;104165;-77
2023/04/28 11:39:28;;;;;;;10.63;2.30;;;;;;;14.89;32.41;100557.91;126960;1086;104079;-75
2023/04/28 11:41:58;;;;;;;3.67;1.93;;;;;;;14.62;32.04;100576.77;127099;1085;104203;-77
2023/04/28 11:44:30;;;;;;;3.20;2.17;;;;;;;14.57;32.99;100573.11;126573;1086;102171;-74
2023/04/28 11:47:02;;;;;;;5.67;2.25;;;;;;;14.58;32.28;100574.00;126572;1087;102382;-78
2023/04/28 11:49:41;;;;;;;6.00;2.40;;;;;;;14.64;32.82;100555.67;127017;1086;104076;-76
2023/04/28 11:52:11;;;;;;;9.50;2.37;;;;;;;14.70;31.94;100575.16;126632;1089;104245;-79
2023/04/28 11:54:42;;;;;;;4.87;2.10;;;;;;;14.69;32.20;100560.20;127041;1085;104210;-80
2023/04/28 11:57:25;;;;;;;4.57;2.40;;;;;;;14.77;33.06;100556.80;126964;1085;104212;-80
2023/04/28 12:00:18;;;;;;;7.37;2.33;;;;;;;14.90;32.70;100540.33;127632;1086;102046;-80
2023/04/28 12:02:57;;;;;;;4.13;1.90;;;;;;;14.95;32.75;100546.58;126667;1086;104152;-80
2023/04/28 12:05:40;;;;;;;3.83;2.33;;;;;;;14.87;32.59;100569.33;126496;1089;104171;-76
2023/04/28 12:08:41;;;;;;;5.23;2.23;;;;;;;14.87;32.70;100556.13;126997;1086;104166;-79